sensor_id;sensor_type;location;lat;lon;timestamp;pressure;altitude;pressure_sealevel;temperature;humidity
77469;BME280;66567;50.272;12.818;2023-02-26T00:00:10;95201;;;-2.2;64.5
77469;BME280;66567;50.272;12.818;2023-02-26T00:02:05;95205;;;-2.2;65.1
77469;BME280;66567;50.272;12.818;2023-02-26T00:04:05;95211;;;-2.2;64.3
77469;BME280;66567;50.272;12.818;2023-02-26T00:06:06;95211;;;-2.2;63.9
77469;BME280;66567;50.272;12.818;2023-02-26T00:08:05;95219;;;-2.2;63.5
77469;BME280;66567;50.272;12.818;2023-02-26T00:10:07;95227;;;-2.2;64.6
77469;BME280;66567;50.272;12.818;2023-02-26T00:12:05;95232;;;-2.2;63.7
77469;BME280;66567;50.272;12.818;2023-02-26T00:14:08;95233;;;-2.1;63.8
77469;BME280;66567;50.272;12.818;2023-02-26T00:16:12;95234;;;-2.1;64.8
77469;BME280;66567;50.272;12.818;2023-02-26T00:18:07;95232;;;-2.1;65.2
77469;BME280;66567;50.272;12.818;2023-02-26T00:20:06;95229;;;-2.1;64.1
77469;BME280;66567;50.272;12.818;2023-02-26T00:22:05;95232;;;-2.1;64.9
77469;BME280;66567;50.272;12.818;2023-02-26T00:24:05;95239;;;-2.1;64.3
77469;BME280;66567;50.272;12.818;2023-02-26T00:26:05;95240;;;-2.1;64.9
77469;BME280;66567;50.272;12.818;2023-02-26T00:28:06;95244;;;-2.1;64.5
77469;BME280;66567;50.272;12.818;2023-02-26T00:30:06;95244;;;-2.1;64.3
77469;BME280;66567;50.272;12.818;2023-02-26T00:32:05;95248;;;-2.1;64.4
77469;BME280;66567;50.272;12.818;2023-02-26T00:34:05;95253;;;-2.1;64.6
77469;BME280;66567;50.272;12.818;2023-02-26T00:38:09;95262;;;-2.1;64.5
77469;BME280;66567;50.272;12.818;2023-02-26T00:42:05;95264;;;-2.1;63.5
77469;BME280;66567;50.272;12.818;2023-02-26T00:44:05;95266;;;-2.1;63.6
77469;BME280;66567;50.272;12.818;2023-02-26T00:50:13;95268;;;-2.0;64.2
77469;BME280;66567;50.272;12.818;2023-02-26T00:52:09;95267;;;-2.0;64.4
77469;BME280;66567;50.272;12.818;2023-02-26T00:54:12;95270;;;-2.0;65.3
77469;BME280;66567;50.272;12.818;2023-02-26T00:56:05;95272;;;-2.0;65.6
77469;BME280;66567;50.272;12.818;2023-02-26T00:58:05;95267;;;-2.0;65.1
77469;BME280;66567;50.272;12.818;2023-02-26T01:00:07;95265;;;-2.0;64.7
77469;BME280;66567;50.272;12.818;2023-02-26T01:02:05;95268;;;-2.1;64.5
77469;BME280;66567;50.272;12.818;2023-02-26T01:04:05;95268;;;-2.1;64.7
77469;BME280;66567;50.272;12.818;2023-02-26T01:06:10;95268;;;-2.0;64.9
77469;BME280;66567;50.272;12.818;2023-02-26T01:08:12;95268;;;-2.0;65.2
77469;BME280;66567;50.272;12.818;2023-02-26T01:10:06;95264;;;-2.0;64.7
77469;BME280;66567;50.272;12.818;2023-02-26T01:12:08;95263;;;-2.0;64.5
77469;BME280;66567;50.272;12.818;2023-02-26T01:14:06;95263;;;-2.0;64.9
77469;BME280;66567;50.272;12.818;2023-02-26T01:16:08;95264;;;-2.0;65.1
77469;BME280;66567;50.272;12.818;2023-02-26T01:18:11;95269;;;-2.0;66.0
77469;BME280;66567;50.272;12.818;2023-02-26T01:20:08;95268;;;-2.0;66.1
77469;BME280;66567;50.272;12.818;2023-02-26T01:24:07;95265;;;-2.0;65.4
77469;BME280;66567;50.272;12.818;2023-02-26T01:26:09;95268;;;-1.9;65.5
77469;BME280;66567;50.272;12.818;2023-02-26T01:28:05;95269;;;-1.9;66.0
77469;BME280;66567;50.272;12.818;2023-02-26T01:30:06;95274;;;-1.9;65.9
77469;BME280;66567;50.272;12.818;2023-02-26T01:32:11;95274;;;-1.9;66.1
77469;BME280;66567;50.272;12.818;2023-02-26T01:34:10;95271;;;-1.9;65.7
77469;BME280;66567;50.272;12.818;2023-02-26T01:36:10;95268;;;-1.8;65.6
77469;BME280;66567;50.272;12.818;2023-02-26T01:40:17;95278;;;-1.8;65.7
77469;BME280;66567;50.272;12.818;2023-02-26T01:42:26;95276;;;-1.8;65.4
77469;BME280;66567;50.272;12.818;2023-02-26T01:44:25;95274;;;-1.8;65.4
77469;BME280;66567;50.272;12.818;2023-02-26T01:46:15;95275;;;-1.8;64.3
77469;BME280;66567;50.272;12.818;2023-02-26T01:48:11;95279;;;-1.8;65.0
77469;BME280;66567;50.272;12.818;2023-02-26T01:50:14;95279;;;-1.8;64.8
77469;BME280;66567;50.272;12.818;2023-02-26T01:52:59;95281;;;-1.8;66.6
77469;BME280;66567;50.272;12.818;2023-02-26T01:54:05;95288;;;-1.8;66.1
77469;BME280;66567;50.272;12.818;2023-02-26T01:56:11;95286;;;-1.7;65.2
77469;BME280;66567;50.272;12.818;2023-02-26T01:58:05;95283;;;-1.7;65.2
77469;BME280;66567;50.272;12.818;2023-02-26T02:00:06;95288;;;-1.7;64.6
77469;BME280;66567;50.272;12.818;2023-02-26T02:02:06;95288;;;-1.7;64.9
77469;BME280;66567;50.272;12.818;2023-02-26T02:04:09;95289;;;-1.7;65.0
77469;BME280;66567;50.272;12.818;2023-02-26T02:06:08;95291;;;-1.7;65.0
77469;BME280;66567;50.272;12.818;2023-02-26T02:08:05;95293;;;-1.7;65.0
77469;BME280;66567;50.272;12.818;2023-02-26T02:10:06;95294;;;-1.7;64.9
77469;BME280;66567;50.272;12.818;2023-02-26T02:14:17;95295;;;-1.7;64.7
77469;BME280;66567;50.272;12.818;2023-02-26T02:20:20;95301;;;-1.8;64.1
77469;BME280;66567;50.272;12.818;2023-02-26T02:26:25;95307;;;-1.8;64.3
77469;BME280;66567;50.272;12.818;2023-02-26T02:32:07;95310;;;-1.8;64.2
77469;BME280;66567;50.272;12.818;2023-02-26T02:34:13;95316;;;-1.8;64.4
77469;BME280;66567;50.272;12.818;2023-02-26T02:36:09;95316;;;-1.8;64.9
77469;BME280;66567;50.272;12.818;2023-02-26T02:38:27;95319;;;-1.9;64.4
77469;BME280;66567;50.272;12.818;2023-02-26T02:40:10;95322;;;-1.9;64.3
77469;BME280;66567;50.272;12.818;2023-02-26T02:44:07;95314;;;-1.9;64.1
77469;BME280;66567;50.272;12.818;2023-02-26T02:46:07;95314;;;-1.9;64.4
77469;BME280;66567;50.272;12.818;2023-02-26T02:48:15;95317;;;-1.9;65.0
77469;BME280;66567;50.272;12.818;2023-02-26T02:56:18;95329;;;-1.9;64.8
77469;BME280;66567;50.272;12.818;2023-02-26T02:58:15;95333;;;-1.9;64.4
77469;BME280;66567;50.272;12.818;2023-02-26T03:00:07;95337;;;-1.9;65.0
77469;BME280;66567;50.272;12.818;2023-02-26T03:04:07;95337;;;-1.9;65.5
77469;BME280;66567;50.272;12.818;2023-02-26T03:06:05;95339;;;-1.9;65.5
77469;BME280;66567;50.272;12.818;2023-02-26T03:08:07;95345;;;-1.9;65.8
77469;BME280;66567;50.272;12.818;2023-02-26T03:10:05;95351;;;-1.8;65.9
77469;BME280;66567;50.272;12.818;2023-02-26T03:12:05;95356;;;-1.8;65.9
77469;BME280;66567;50.272;12.818;2023-02-26T03:14:05;95357;;;-1.8;65.7
77469;BME280;66567;50.272;12.818;2023-02-26T03:20:19;95369;;;-1.7;66.1
77469;BME280;66567;50.272;12.818;2023-02-26T03:22:20;95372;;;-1.7;66.3
77469;BME280;66567;50.272;12.818;2023-02-26T03:24:11;95375;;;-1.7;65.7
77469;BME280;66567;50.272;12.818;2023-02-26T03:26:14;95376;;;-1.7;66.1
77469;BME280;66567;50.272;12.818;2023-02-26T03:28:10;95382;;;-1.7;66.2
77469;BME280;66567;50.272;12.818;2023-02-26T03:32:09;95385;;;-1.6;66.3
77469;BME280;66567;50.272;12.818;2023-02-26T03:34:18;95387;;;-1.6;66.4
77469;BME280;66567;50.272;12.818;2023-02-26T03:36:13;95388;;;-1.6;66.2
77469;BME280;66567;50.272;12.818;2023-02-26T03:38:07;95389;;;-1.6;66.4
77469;BME280;66567;50.272;12.818;2023-02-26T03:40:08;95389;;;-1.6;66.6
77469;BME280;66567;50.272;12.818;2023-02-26T03:44:12;95392;;;-1.6;66.4
77469;BME280;66567;50.272;12.818;2023-02-26T03:46:08;95394;;;-1.6;66.4
77469;BME280;66567;50.272;12.818;2023-02-26T03:48:07;95394;;;-1.7;66.2
77469;BME280;66567;50.272;12.818;2023-02-26T03:50:09;95397;;;-1.7;66.1
77469;BME280;66567;50.272;12.818;2023-02-26T03:52:05;95399;;;-1.7;66.4
77469;BME280;66567;50.272;12.818;2023-02-26T03:54:13;95400;;;-1.7;66.5
77469;BME280;66567;50.272;12.818;2023-02-26T03:58:05;95406;;;-1.7;66.7
77469;BME280;66567;50.272;12.818;2023-02-26T04:00:06;95405;;;-1.7;65.7
77469;BME280;66567;50.272;12.818;2023-02-26T04:02:17;95408;;;-1.8;65.6
77469;BME280;66567;50.272;12.818;2023-02-26T04:04:10;95410;;;-1.8;66.2
77469;BME280;66567;50.272;12.818;2023-02-26T04:06:05;95412;;;-1.8;65.9
77469;BME280;66567;50.272;12.818;2023-02-26T04:08:05;95415;;;-1.8;66.1
77469;BME280;66567;50.272;12.818;2023-02-26T04:10:06;95412;;;-1.8;65.8
77469;BME280;66567;50.272;12.818;2023-02-26T04:12:05;95410;;;-1.8;65.6
77469;BME280;66567;50.272;12.818;2023-02-26T04:14:05;95414;;;-1.8;65.7
77469;BME280;66567;50.272;12.818;2023-02-26T04:16:05;95414;;;-1.8;65.9
77469;BME280;66567;50.272;12.818;2023-02-26T04:18:05;95416;;;-1.8;66.2
77469;BME280;66567;50.272;12.818;2023-02-26T04:20:09;95412;;;-1.8;65.4
77469;BME280;66567;50.272;12.818;2023-02-26T04:22:05;95412;;;-1.8;65.0
77469;BME280;66567;50.272;12.818;2023-02-26T04:24:05;95414;;;-1.8;65.1
77469;BME280;66567;50.272;12.818;2023-02-26T04:26:05;95417;;;-1.8;65.2
77469;BME280;66567;50.272;12.818;2023-02-26T04:28:05;95419;;;-1.8;64.8
77469;BME280;66567;50.272;12.818;2023-02-26T04:30:06;95423;;;-1.7;65.4
77469;BME280;66567;50.272;12.818;2023-02-26T04:32:05;95425;;;-1.7;65.2
77469;BME280;66567;50.272;12.818;2023-02-26T04:34:05;95425;;;-1.7;64.7
77469;BME280;66567;50.272;12.818;2023-02-26T04:36:05;95429;;;-1.7;65.0
77469;BME280;66567;50.272;12.818;2023-02-26T04:38:05;95436;;;-1.7;66.2
77469;BME280;66567;50.272;12.818;2023-02-26T04:40:06;95442;;;-1.7;66.4
77469;BME280;66567;50.272;12.818;2023-02-26T04:42:05;95442;;;-1.6;65.7
77469;BME280;66567;50.272;12.818;2023-02-26T04:44:05;95444;;;-1.6;65.1
77469;BME280;66567;50.272;12.818;2023-02-26T04:46:05;95445;;;-1.6;65.5
77469;BME280;66567;50.272;12.818;2023-02-26T04:48:05;95450;;;-1.6;65.3
77469;BME280;66567;50.272;12.818;2023-02-26T04:50:06;95453;;;-1.6;65.1
77469;BME280;66567;50.272;12.818;2023-02-26T04:52:05;95455;;;-1.6;65.0
77469;BME280;66567;50.272;12.818;2023-02-26T04:54:05;95458;;;-1.6;65.2
77469;BME280;66567;50.272;12.818;2023-02-26T04:56:06;95456;;;-1.6;64.8
77469;BME280;66567;50.272;12.818;2023-02-26T04:58:06;95460;;;-1.6;65.0
77469;BME280;66567;50.272;12.818;2023-02-26T05:00:06;95465;;;-1.6;64.8
77469;BME280;66567;50.272;12.818;2023-02-26T05:02:05;95469;;;-1.6;64.9
77469;BME280;66567;50.272;12.818;2023-02-26T05:04:06;95475;;;-1.6;65.2
77469;BME280;66567;50.272;12.818;2023-02-26T05:06:05;95479;;;-1.6;65.1
77469;BME280;66567;50.272;12.818;2023-02-26T05:08:05;95483;;;-1.6;64.9
77469;BME280;66567;50.272;12.818;2023-02-26T05:10:06;95487;;;-1.6;64.9
77469;BME280;66567;50.272;12.818;2023-02-26T05:12:05;95487;;;-1.6;65.2
77469;BME280;66567;50.272;12.818;2023-02-26T05:14:05;95489;;;-1.6;65.6
77469;BME280;66567;50.272;12.818;2023-02-26T05:16:06;95489;;;-1.6;64.4
77469;BME280;66567;50.272;12.818;2023-02-26T05:18:05;95491;;;-1.7;65.2
77469;BME280;66567;50.272;12.818;2023-02-26T05:20:09;95493;;;-1.7;65.0
77469;BME280;66567;50.272;12.818;2023-02-26T05:22:05;95496;;;-1.7;64.6
77469;BME280;66567;50.272;12.818;2023-02-26T05:24:05;95495;;;-1.7;64.7
77469;BME280;66567;50.272;12.818;2023-02-26T05:26:05;95501;;;-1.7;64.7
77469;BME280;66567;50.272;12.818;2023-02-26T05:28:05;95503;;;-1.8;64.6
77469;BME280;66567;50.272;12.818;2023-02-26T05:30:06;95505;;;-1.8;65.2
77469;BME280;66567;50.272;12.818;2023-02-26T05:32:05;95509;;;-1.8;64.9
77469;BME280;66567;50.272;12.818;2023-02-26T05:34:05;95510;;;-1.8;65.3
77469;BME280;66567;50.272;12.818;2023-02-26T05:36:06;95513;;;-1.8;65.1
77469;BME280;66567;50.272;12.818;2023-02-26T05:38:05;95514;;;-1.8;65.6
77469;BME280;66567;50.272;12.818;2023-02-26T05:40:08;95518;;;-1.8;66.0
77469;BME280;66567;50.272;12.818;2023-02-26T05:42:06;95522;;;-1.7;66.1
77469;BME280;66567;50.272;12.818;2023-02-26T05:44:07;95529;;;-1.7;65.8
77469;BME280;66567;50.272;12.818;2023-02-26T05:46:05;95529;;;-1.7;65.7
77469;BME280;66567;50.272;12.818;2023-02-26T05:48:05;95533;;;-1.7;65.7
77469;BME280;66567;50.272;12.818;2023-02-26T05:50:05;95540;;;-1.7;66.0
77469;BME280;66567;50.272;12.818;2023-02-26T05:52:05;95539;;;-1.7;66.2
77469;BME280;66567;50.272;12.818;2023-02-26T05:54:05;95543;;;-1.7;66.5
77469;BME280;66567;50.272;12.818;2023-02-26T05:56:05;95548;;;-1.7;66.3
77469;BME280;66567;50.272;12.818;2023-02-26T05:58:05;95554;;;-1.7;66.1
77469;BME280;66567;50.272;12.818;2023-02-26T06:00:06;95560;;;-1.7;65.9
77469;BME280;66567;50.272;12.818;2023-02-26T06:02:05;95565;;;-1.6;65.6
77469;BME280;66567;50.272;12.818;2023-02-26T06:04:05;95571;;;-1.6;65.6
77469;BME280;66567;50.272;12.818;2023-02-26T06:06:05;95576;;;-1.6;65.6
77469;BME280;66567;50.272;12.818;2023-02-26T06:08:05;95577;;;-1.6;65.5
77469;BME280;66567;50.272;12.818;2023-02-26T06:10:07;95582;;;-1.6;65.6
77469;BME280;66567;50.272;12.818;2023-02-26T06:12:05;95585;;;-1.6;65.6
77469;BME280;66567;50.272;12.818;2023-02-26T06:14:05;95589;;;-1.6;65.8
77469;BME280;66567;50.272;12.818;2023-02-26T06:16:05;95590;;;-1.6;65.8
77469;BME280;66567;50.272;12.818;2023-02-26T06:18:05;95592;;;-1.5;65.9
77469;BME280;66567;50.272;12.818;2023-02-26T06:20:05;95594;;;-1.5;65.4
77469;BME280;66567;50.272;12.818;2023-02-26T06:22:05;95594;;;-1.5;65.2
77469;BME280;66567;50.272;12.818;2023-02-26T06:24:05;95598;;;-1.4;65.7
77469;BME280;66567;50.272;12.818;2023-02-26T06:26:05;95603;;;-1.4;65.4
77469;BME280;66567;50.272;12.818;2023-02-26T06:28:05;95605;;;-1.4;65.3
77469;BME280;66567;50.272;12.818;2023-02-26T06:30:06;95609;;;-1.3;64.9
77469;BME280;66567;50.272;12.818;2023-02-26T06:32:05;95611;;;-1.3;65.3
77469;BME280;66567;50.272;12.818;2023-02-26T06:34:05;95613;;;-1.3;65.4
77469;BME280;66567;50.272;12.818;2023-02-26T06:36:05;95615;;;-1.2;65.4
77469;BME280;66567;50.272;12.818;2023-02-26T06:38:05;95621;;;-1.2;65.9
77469;BME280;66567;50.272;12.818;2023-02-26T06:40:06;95624;;;-1.2;65.4
77469;BME280;66567;50.272;12.818;2023-02-26T06:42:05;95630;;;-1.1;65.2
77469;BME280;66567;50.272;12.818;2023-02-26T06:44:05;95631;;;-1.1;65.1
77469;BME280;66567;50.272;12.818;2023-02-26T06:46:05;95638;;;-1.1;65.8
77469;BME280;66567;50.272;12.818;2023-02-26T06:48:05;95638;;;-1.0;64.9
77469;BME280;66567;50.272;12.818;2023-02-26T06:50:06;95640;;;-1.0;64.4
77469;BME280;66567;50.272;12.818;2023-02-26T06:52:05;95647;;;-1.0;64.1
77469;BME280;66567;50.272;12.818;2023-02-26T06:54:05;95648;;;-0.9;64.7
77469;BME280;66567;50.272;12.818;2023-02-26T06:56:05;95651;;;-0.9;64.3
77469;BME280;66567;50.272;12.818;2023-02-26T06:58:05;95655;;;-0.9;64.2
77469;BME280;66567;50.272;12.818;2023-02-26T07:00:06;95658;;;-0.8;64.1
77469;BME280;66567;50.272;12.818;2023-02-26T07:02:05;95664;;;-0.8;64.3
77469;BME280;66567;50.272;12.818;2023-02-26T07:04:05;95672;;;-0.7;64.1
77469;BME280;66567;50.272;12.818;2023-02-26T07:06:06;95672;;;-0.7;64.0
77469;BME280;66567;50.272;12.818;2023-02-26T07:08:05;95675;;;-0.6;63.8
77469;BME280;66567;50.272;12.818;2023-02-26T07:10:05;95682;;;-0.6;63.9
77469;BME280;66567;50.272;12.818;2023-02-26T07:12:06;95687;;;-0.5;64.1
77469;BME280;66567;50.272;12.818;2023-02-26T07:14:05;95692;;;-0.4;64.8
77469;BME280;66567;50.272;12.818;2023-02-26T07:16:07;95695;;;-0.3;64.0
77469;BME280;66567;50.272;12.818;2023-02-26T07:18:05;95697;;;-0.1;62.9
77469;BME280;66567;50.272;12.818;2023-02-26T07:20:09;95700;;;0.0;61.6
77469;BME280;66567;50.272;12.818;2023-02-26T07:22:05;95698;;;0.1;60.7
77469;BME280;66567;50.272;12.818;2023-02-26T07:24:06;95702;;;0.2;60.4
77469;BME280;66567;50.272;12.818;2023-02-26T07:26:05;95703;;;0.3;58.7
77469;BME280;66567;50.272;12.818;2023-02-26T07:28:05;95706;;;0.4;58.1
77469;BME280;66567;50.272;12.818;2023-02-26T07:30:06;95710;;;0.4;58.3
77469;BME280;66567;50.272;12.818;2023-02-26T07:32:05;95711;;;0.5;57.5
77469;BME280;66567;50.272;12.818;2023-02-26T07:34:05;95716;;;0.6;58.2
77469;BME280;66567;50.272;12.818;2023-02-26T07:36:05;95721;;;0.8;57.1
77469;BME280;66567;50.272;12.818;2023-02-26T07:38:05;95723;;;0.9;57.1
77469;BME280;66567;50.272;12.818;2023-02-26T07:40:06;95725;;;1.0;56.8
77469;BME280;66567;50.272;12.818;2023-02-26T07:42:05;95726;;;1.2;57.4
77469;BME280;66567;50.272;12.818;2023-02-26T07:44:05;95725;;;1.4;56.5
77469;BME280;66567;50.272;12.818;2023-02-26T07:46:05;95729;;;1.6;54.4
77469;BME280;66567;50.272;12.818;2023-02-26T07:48:05;95728;;;1.8;54.4
77469;BME280;66567;50.272;12.818;2023-02-26T07:50:05;95735;;;1.8;54.9
77469;BME280;66567;50.272;12.818;2023-02-26T07:52:07;95740;;;1.9;54.1
77469;BME280;66567;50.272;12.818;2023-02-26T07:54:05;95741;;;1.8;53.3
77469;BME280;66567;50.272;12.818;2023-02-26T07:56:05;95746;;;1.7;52.8
77469;BME280;66567;50.272;12.818;2023-02-26T07:58:05;95750;;;1.6;53.3
77469;BME280;66567;50.272;12.818;2023-02-26T08:00:06;95753;;;1.4;53.9
77469;BME280;66567;50.272;12.818;2023-02-26T08:02:05;95757;;;1.3;53.4
77469;BME280;66567;50.272;12.818;2023-02-26T08:04:05;95759;;;1.2;53.3
77469;BME280;66567;50.272;12.818;2023-02-26T08:06:06;95757;;;1.1;53.4
77469;BME280;66567;50.272;12.818;2023-02-26T08:08:05;95758;;;1.0;53.7
77469;BME280;66567;50.272;12.818;2023-02-26T08:10:06;95762;;;0.9;53.4
77469;BME280;66567;50.272;12.818;2023-02-26T08:12:05;95766;;;0.9;54.0
77469;BME280;66567;50.272;12.818;2023-02-26T08:14:06;95765;;;0.9;52.8
77469;BME280;66567;50.272;12.818;2023-02-26T08:16:05;95763;;;1.0;52.0
77469;BME280;66567;50.272;12.818;2023-02-26T08:18:05;95763;;;1.1;51.7
77469;BME280;66567;50.272;12.818;2023-02-26T08:20:06;95767;;;1.2;52.1
77469;BME280;66567;50.272;12.818;2023-02-26T08:22:05;95775;;;1.3;52.0
77469;BME280;66567;50.272;12.818;2023-02-26T08:24:05;95778;;;1.5;51.3
77469;BME280;66567;50.272;12.818;2023-02-26T08:26:07;95779;;;1.8;50.4
77469;BME280;66567;50.272;12.818;2023-02-26T08:28:05;95776;;;2.0;49.7
77469;BME280;66567;50.272;12.818;2023-02-26T08:30:06;95778;;;2.2;49.7
77469;BME280;66567;50.272;12.818;2023-02-26T08:32:05;95780;;;2.4;50.3
77469;BME280;66567;50.272;12.818;2023-02-26T08:34:05;95783;;;2.5;48.9
77469;BME280;66567;50.272;12.818;2023-02-26T08:36:06;95786;;;2.7;48.4
77469;BME280;66567;50.272;12.818;2023-02-26T08:38:05;95789;;;2.9;48.1
77469;BME280;66567;50.272;12.818;2023-02-26T08:40:06;95794;;;3.0;47.7
77469;BME280;66567;50.272;12.818;2023-02-26T08:42:06;95797;;;3.1;47.0
77469;BME280;66567;50.272;12.818;2023-02-26T08:44:07;95806;;;3.2;47.4
77469;BME280;66567;50.272;12.818;2023-02-26T08:46:05;95810;;;3.2;47.9
77469;BME280;66567;50.272;12.818;2023-02-26T08:48:05;95813;;;3.3;47.8
77469;BME280;66567;50.272;12.818;2023-02-26T08:50:06;95821;;;3.5;47.8
77469;BME280;66567;50.272;12.818;2023-02-26T08:52:05;95823;;;3.5;47.3
77469;BME280;66567;50.272;12.818;2023-02-26T08:54:05;95828;;;3.6;47.0
77469;BME280;66567;50.272;12.818;2023-02-26T08:56:05;95829;;;3.5;47.2
77469;BME280;66567;50.272;12.818;2023-02-26T08:58:06;95836;;;3.4;47.4
77469;BME280;66567;50.272;12.818;2023-02-26T09:00:09;95830;;;3.3;47.1
77469;BME280;66567;50.272;12.818;2023-02-26T09:02:05;95837;;;3.3;47.4
77469;BME280;66567;50.272;12.818;2023-02-26T09:04:05;95844;;;3.4;48.2
77469;BME280;66567;50.272;12.818;2023-02-26T09:06:05;95848;;;3.5;47.6
77469;BME280;66567;50.272;12.818;2023-02-26T09:08:06;95848;;;3.6;46.3
77469;BME280;66567;50.272;12.818;2023-02-26T09:10:06;95851;;;3.5;46.7
77469;BME280;66567;50.272;12.818;2023-02-26T09:12:05;95852;;;3.4;46.6
77469;BME280;66567;50.272;12.818;2023-02-26T09:14:05;95861;;;3.1;46.4
77469;BME280;66567;50.272;12.818;2023-02-26T09:16:06;95866;;;2.9;46.8
77469;BME280;66567;50.272;12.818;2023-02-26T09:18:05;95876;;;2.6;47.1
77469;BME280;66567;50.272;12.818;2023-02-26T09:20:06;95874;;;2.4;47.4
77469;BME280;66567;50.272;12.818;2023-02-26T09:22:05;95883;;;2.2;47.7
77469;BME280;66567;50.272;12.818;2023-02-26T09:24:05;95886;;;2.1;48.6
77469;BME280;66567;50.272;12.818;2023-02-26T09:26:07;95889;;;2.1;47.9
77469;BME280;66567;50.272;12.818;2023-02-26T09:28:05;95890;;;2.0;48.7
77469;BME280;66567;50.272;12.818;2023-02-26T09:30:06;95892;;;2.1;48.7
77469;BME280;66567;50.272;12.818;2023-02-26T09:32:07;95897;;;2.1;48.7
77469;BME280;66567;50.272;12.818;2023-02-26T09:34:05;95896;;;2.2;48.8
77469;BME280;66567;50.272;12.818;2023-02-26T09:36:05;95903;;;2.4;49.1
77469;BME280;66567;50.272;12.818;2023-02-26T09:38:05;95907;;;2.6;49.3
77469;BME280;66567;50.272;12.818;2023-02-26T09:40:06;95906;;;2.8;49.0
77469;BME280;66567;50.272;12.818;2023-02-26T09:42:10;95906;;;3.0;47.8
77469;BME280;66567;50.272;12.818;2023-02-26T09:44:24;95909;;;3.0;47.9
77469;BME280;66567;50.272;12.818;2023-02-26T09:48:05;95912;;;3.1;47.6
77469;BME280;66567;50.272;12.818;2023-02-26T09:50:17;95915;;;3.0;47.1
77469;BME280;66567;50.272;12.818;2023-02-26T09:54:17;95919;;;3.0;47.8
77469;BME280;66567;50.272;12.818;2023-02-26T09:56:12;95925;;;2.9;48.0
77469;BME280;66567;50.272;12.818;2023-02-26T09:58:27;95928;;;2.9;47.7
77469;BME280;66567;50.272;12.818;2023-02-26T10:02:22;95932;;;2.8;48.5
77469;BME280;66567;50.272;12.818;2023-02-26T10:04:20;95930;;;2.8;47.9
77469;BME280;66567;50.272;12.818;2023-02-26T10:06:17;95935;;;2.8;48.8
77469;BME280;66567;50.272;12.818;2023-02-26T10:08:11;95936;;;2.8;47.9
77469;BME280;66567;50.272;12.818;2023-02-26T10:12:15;95932;;;2.7;47.6
77469;BME280;66567;50.272;12.818;2023-02-26T10:14:15;95935;;;2.7;47.6
77469;BME280;66567;50.272;12.818;2023-02-26T10:16:10;95937;;;2.6;47.9
77469;BME280;66567;50.272;12.818;2023-02-26T10:18:10;95937;;;2.5;47.8
77469;BME280;66567;50.272;12.818;2023-02-26T10:20:12;95936;;;2.4;48.5
77469;BME280;66567;50.272;12.818;2023-02-26T10:24:11;95939;;;2.3;48.9
77469;BME280;66567;50.272;12.818;2023-02-26T10:26:11;95944;;;2.3;49.0
77469;BME280;66567;50.272;12.818;2023-02-26T10:34:10;95958;;;2.2;49.7
77469;BME280;66567;50.272;12.818;2023-02-26T10:36:18;95959;;;2.2;49.2
77469;BME280;66567;50.272;12.818;2023-02-26T10:38:11;95958;;;2.2;49.9
77469;BME280;66567;50.272;12.818;2023-02-26T10:40:23;95966;;;2.2;49.0
77469;BME280;66567;50.272;12.818;2023-02-26T10:42:12;95967;;;2.1;48.6
77469;BME280;66567;50.272;12.818;2023-02-26T10:44:15;95974;;;2.1;48.8
77469;BME280;66567;50.272;12.818;2023-02-26T10:48:19;95975;;;1.9;49.2
77469;BME280;66567;50.272;12.818;2023-02-26T10:50:09;95976;;;1.9;49.1
77469;BME280;66567;50.272;12.818;2023-02-26T10:52:14;95974;;;1.8;49.4
77469;BME280;66567;50.272;12.818;2023-02-26T10:54:14;95978;;;1.7;50.3
77469;BME280;66567;50.272;12.818;2023-02-26T10:56:16;95984;;;1.7;50.5
77469;BME280;66567;50.272;12.818;2023-02-26T10:58:11;95982;;;1.8;50.9
77469;BME280;66567;50.272;12.818;2023-02-26T11:00:06;95982;;;2.0;50.8
77469;BME280;66567;50.272;12.818;2023-02-26T11:02:17;95983;;;2.2;50.2
77469;BME280;66567;50.272;12.818;2023-02-26T11:04:08;95983;;;2.3;50.6
77469;BME280;66567;50.272;12.818;2023-02-26T11:06:05;95981;;;2.4;49.8
77469;BME280;66567;50.272;12.818;2023-02-26T11:10:13;95985;;;2.6;49.3
77469;BME280;66567;50.272;12.818;2023-02-26T11:12:11;95986;;;2.7;50.1
77469;BME280;66567;50.272;12.818;2023-02-26T11:14:06;95987;;;2.7;49.3
77469;BME280;66567;50.272;12.818;2023-02-26T11:16:12;95991;;;2.7;49.3
77469;BME280;66567;50.272;12.818;2023-02-26T11:18:05;95991;;;2.6;49.1
77469;BME280;66567;50.272;12.818;2023-02-26T11:20:17;95996;;;2.5;49.9
77469;BME280;66567;50.272;12.818;2023-02-26T11:22:10;95999;;;2.4;48.9
77469;BME280;66567;50.272;12.818;2023-02-26T11:24:17;96001;;;2.3;50.2
77469;BME280;66567;50.272;12.818;2023-02-26T11:26:07;96007;;;2.1;49.6
77469;BME280;66567;50.272;12.818;2023-02-26T11:28:19;96016;;;2.0;50.2
77469;BME280;66567;50.272;12.818;2023-02-26T11:30:16;96019;;;1.9;50.6
77469;BME280;66567;50.272;12.818;2023-02-26T11:32:06;96020;;;1.8;51.0
77469;BME280;66567;50.272;12.818;2023-02-26T11:34:07;96019;;;1.7;50.7
77469;BME280;66567;50.272;12.818;2023-02-26T11:36:10;96017;;;1.6;51.5
77469;BME280;66567;50.272;12.818;2023-02-26T11:38:05;96015;;;1.5;51.7
77469;BME280;66567;50.272;12.818;2023-02-26T11:40:14;96015;;;1.4;52.0
77469;BME280;66567;50.272;12.818;2023-02-26T11:42:05;96014;;;1.4;52.0
77469;BME280;66567;50.272;12.818;2023-02-26T11:44:09;96015;;;1.3;52.3
77469;BME280;66567;50.272;12.818;2023-02-26T11:46:05;96015;;;1.2;52.7
77469;BME280;66567;50.272;12.818;2023-02-26T11:48:08;96012;;;1.2;52.7
77469;BME280;66567;50.272;12.818;2023-02-26T11:50:18;96018;;;1.2;52.7
77469;BME280;66567;50.272;12.818;2023-02-26T11:52:17;96009;;;1.1;53.1
77469;BME280;66567;50.272;12.818;2023-02-26T11:54:27;96012;;;1.1;53.0
77469;BME280;66567;50.272;12.818;2023-02-26T11:56:12;96009;;;1.0;53.3
77469;BME280;66567;50.272;12.818;2023-02-26T11:58:22;96009;;;1.0;53.2
77469;BME280;66567;50.272;12.818;2023-02-26T12:00:22;96011;;;1.0;53.3
77469;BME280;66567;50.272;12.818;2023-02-26T12:02:13;96011;;;1.1;52.7
77469;BME280;66567;50.272;12.818;2023-02-26T12:04:05;96010;;;1.1;53.1
77469;BME280;66567;50.272;12.818;2023-02-26T12:06:05;96011;;;1.2;53.7
77469;BME280;66567;50.272;12.818;2023-02-26T12:08:17;96009;;;1.4;52.9
77469;BME280;66567;50.272;12.818;2023-02-26T12:10:17;96010;;;1.5;52.6
77469;BME280;66567;50.272;12.818;2023-02-26T12:16:24;96000;;;1.6;51.9
77469;BME280;66567;50.272;12.818;2023-02-26T12:32:11;95997;;;1.9;52.6
77469;BME280;66567;50.272;12.818;2023-02-26T12:38:14;95998;;;2.0;50.7
77469;BME280;66567;50.272;12.818;2023-02-26T12:44:21;95999;;;2.1;50.9
77469;BME280;66567;50.272;12.818;2023-02-26T12:56:27;96016;;;2.6;49.8